METAR Data
IDs: Format: Raw Decoded Include TAF

Data at: 1357 UTC 10 Aug 2022

KHHR 101353Z 00000KT 10SM CLR 22/18 A2998 RMK AO2 SLP152 T02170183
KHHR 101253Z AUTO 00000KT 10SM CLR 22/18 A2996 RMK AO2 SLP145 T02170178
KHHR 101153Z AUTO 00000KT 10SM CLR 22/18 A2996 RMK AO2 SLP143 T02220183 10239 20217 56003
KHHR 101053Z AUTO 00000KT 10SM CLR 22/18 A2996 RMK AO2 SLP143 T02220178
KHHR 100953Z AUTO 00000KT 10SM CLR 23/18 A2996 RMK AO2 SLP143 T02280178
KHHR 100853Z AUTO 00000KT 10SM CLR 23/16 A2996 RMK AO2 SLP145 T02330156 58001
KHHR 100753Z AUTO 00000KT 10SM CLR 23/16 A2997 RMK AO2 SLP146 T02330156 403170228
KHHR 100653Z AUTO 00000KT 10SM CLR 24/16 A2997 RMK AO2 SLP146 T02390156
KHHR 100553Z AUTO 00000KT 10SM CLR 24/15 A2997 RMK AO2 SLP146 T02390150 10272 20233 51022
KHHR 100453Z 21003KT 10SM CLR 23/15 A2996 RMK AO2 SLP143 T02330150
KHHR 100353Z 25006KT 10SM CLR 24/15 A2993 RMK AO2 SLP133 T02390150
KHHR 100253Z 24007KT 10SM CLR 24/16 A2990 RMK AO2 SLP124 T02390156 53004
KHHR 100153Z 25010KT 10SM CLR 24/16 A2989 RMK AO2 SLP120 T02440161
KHHR 100053Z 27010KT 10SM CLR 26/14 A2989 RMK AO2 SLP120 T02560144
KHHR 092353Z 28011KT 10SM CLR 28/15 A2989 RMK AO2 SLP120 T02780150 10317 20278 56009
KHHR 092253Z 26010KT 10SM CLR 29/14 A2989 RMK AO2 SLP122 T02890144
KHHR 092153Z 26011KT 10SM CLR 29/16 A2990 RMK AO2 SLP124 T02940156
KHHR 092053Z 25008KT 10SM CLR 31/16 A2992 RMK AO2 SLP129 T03060156 58012
KHHR 091953Z 24007KT 10SM CLR 31/16 A2993 RMK AO2 SLP135 T03060156
KHHR 091853Z VRB06KT 10SM CLR 30/16 A2994 RMK AO2 SLP138 T03000161
KHHR 091753Z 26008KT 10SM CLR 28/17 A2995 RMK AO2 SLP141 T02830172 10306 20228 51005
KHHR 091653Z 17004KT 10SM CLR 29/15 A2994 RMK AO2 SLP139 T02890150
KHHR 091553Z VRB05KT 10SM CLR 27/16 A2994 RMK AO2 SLP138 T02720156
KHHR 091453Z 26003KT 10SM CLR 24/17 A2994 RMK AO2 SLP136 T02440172 51013
KHHR 091353Z 00000KT 10SM CLR 23/17 A2993 RMK AO2 SLP133 T02330167
KHHR 091253Z 00000KT 10SM CLR 24/16 A2991 RMK AO2 SLP127 T02390156
KHHR 091153Z AUTO 00000KT 10SM CLR 24/16 A2990 RMK AO2 SLP123 T02390156 10239 20228 56002
KHHR 091053Z AUTO 00000KT 10SM CLR 23/16 A2990 RMK AO2 SLP123 T02330156
KHHR 090953Z AUTO 00000KT 10SM CLR 23/16 A2990 RMK AO2 SLP124 T02330156
KHHR 090853Z AUTO 00000KT 10SM CLR 23/15 A2990 RMK AO2 SLP125 T02330150 58007
KHHR 090753Z AUTO 00000KT 10SM CLR 23/15 A2992 RMK AO2 SLP130 T02330150 403060211
KHHR 090653Z AUTO 00000KT 10SM CLR 23/14 A2993 RMK AO2 SLP134 T02330144
KHHR 090553Z AUTO 27004KT 10SM CLR 24/14 A2993 RMK AO2 SLP132 T02390144 10272 20233 50012
KHHR 090453Z AUTO 00000KT 10SM CLR 24/15 A2993 RMK AO2 SLP135 T02390150
KHHR 090353Z 21003KT 10SM CLR 23/15 A2992 RMK AO2 SLP129 T02330150
KHHR 090253Z 29003KT 10SM CLR 24/16 A2989 RMK AO2 SLP120 T02390156 53004